Time;durP1;ratioP1;P1;durP2;ratioP2;P2;SDS_P1;SDS_P2;PMS_P1;PMS_P2;Temp;Humidity;BMP_temperature;BMP_pressure;BME280_temperature;BME280_humidity;BME280_pressure;Samples;Min_cycle;Max_cycle;Signal;HPM_P1;HPM_P2
2022/10/10 00:00:10;;;;;;;4.22;3.15;;;;;;;12.64;68.59;99591.03;340348;29;1635;-68
2022/10/10 00:00:22;;;;;;;5.78;3.10;;;;;;;12.61;68.75;99585.94;340829;28;1702;-68
2022/10/10 00:00:34;;;;;;;5.75;2.97;;;;;;;12.61;68.82;99591.16;341233;28;1312;-68
2022/10/10 00:00:46;;;;;;;6.18;3.10;;;;;;;12.62;68.77;99584.19;341122;28;1207;-68
2022/10/10 00:00:58;;;;;;;6.13;3.35;;;;;;;12.63;68.49;99581.50;341169;28;1075;-68
2022/10/10 00:01:13;;;;;;;6.00;3.35;;;;;;;12.63;68.70;99583.28;340890;28;1528;-68
2022/10/10 00:01:28;;;;;;;4.45;3.25;;;;;;;12.61;68.53;99591.16;341022;28;1313;-68
2022/10/10 00:01:40;;;;;;;5.22;3.40;;;;;;;12.59;68.54;99587.75;341064;28;1274;-69
2022/10/10 00:01:51;;;;;;;6.53;3.42;;;;;;;12.60;68.68;99584.25;342224;28;3430;-68
2022/10/10 00:02:03;;;;;;;8.02;3.53;;;;;;;12.58;68.42;99580.88;341426;28;1638;-68
2022/10/10 00:02:15;;;;;;;6.07;3.40;;;;;;;12.58;68.09;99580.88;341824;28;1589;-68
2022/10/10 00:02:27;;;;;;;4.88;3.55;;;;;;;12.57;68.30;99589.59;341094;29;1278;-68
2022/10/10 00:02:40;;;;;;;4.53;3.38;;;;;;;12.58;68.40;99592.13;341913;28;1652;-68
2022/10/10 00:02:51;;;;;;;4.70;3.25;;;;;;;12.56;68.51;99587.91;342217;28;1675;-68
2022/10/10 00:03:05;;;;;;;6.20;3.65;;;;;;;12.56;68.69;99587.91;341478;28;1824;-68
2022/10/10 00:03:18;;;;;;;6.13;3.50;;;;;;;12.57;68.61;99586.97;342079;28;1204;-68
2022/10/10 00:03:30;;;;;;;4.70;3.05;;;;;;;12.57;68.46;99592.19;340992;29;1204;-69
2022/10/10 00:03:45;;;;;;;5.15;3.03;;;;;;;12.56;68.96;99593.13;340398;29;1103;-68
2022/10/10 00:03:58;;;;;;;4.72;3.20;;;;;;;12.56;68.83;99587.91;340746;29;1290;-68
2022/10/10 00:04:10;;;;;;;4.63;3.30;;;;;;;12.55;69.19;99591.41;340966;28;1490;-68
2022/10/10 00:04:22;;;;;;;5.63;3.45;;;;;;;12.53;69.30;99590.63;341070;28;1278;-68
2022/10/10 00:04:34;;;;;;;7.35;3.40;;;;;;;12.49;69.86;99591.66;341045;29;1007;-68
2022/10/10 00:04:46;;;;;;;7.38;3.50;;;;;;;12.48;69.80;99595.19;341032;28;1106;-68
2022/10/10 00:04:58;;;;;;;6.22;3.60;;;;;;;12.48;69.69;99588.22;340945;29;1003;-68
2022/10/10 00:05:10;;;;;;;4.82;3.55;;;;;;;12.48;69.86;99587.38;340047;29;1777;-68
2022/10/10 00:05:22;;;;;;;4.80;3.53;;;;;;;12.47;69.92;99588.28;341041;29;1384;-68
2022/10/10 00:05:36;;;;;;;6.00;3.80;;;;;;;12.47;69.51;99588.28;341031;29;1228;-68
2022/10/10 00:05:48;;;;;;;6.45;3.88;;;;;;;12.45;69.78;99583.13;340547;29;1621;-68
2022/10/10 00:06:00;;;;;;;5.38;3.83;;;;;;;12.47;69.58;99593.50;339881;28;1454;-68
2022/10/10 00:06:12;;;;;;;5.47;3.55;;;;;;;12.47;69.66;99589.13;339866;29;1717;-68
2022/10/10 00:06:26;;;;;;;6.45;3.40;;;;;;;12.43;69.96;99584.94;338345;29;1239;-68
2022/10/10 00:06:43;;;;;;;5.47;3.40;;;;;;;12.45;69.77;99590.09;339311;29;1080;-68
2022/10/10 00:06:55;;;;;;;5.38;3.72;;;;;;;12.45;69.78;99590.09;339606;29;1170;-68
2022/10/10 00:07:07;;;;;;;6.93;3.90;;;;;;;12.44;69.74;99589.25;339128;29;1834;-68
2022/10/10 00:07:19;;;;;;;6.88;3.75;;;;;;;12.45;69.44;99584.88;337779;29;3869;-68
2022/10/10 00:07:31;;;;;;;5.95;3.47;;;;;;;12.38;69.58;99590.34;338909;29;6575;-68
2022/10/10 00:07:44;;;;;;;5.22;3.33;;;;;;;12.38;69.90;99585.13;338314;29;1050;-68
2022/10/10 00:07:56;;;;;;;3.83;3.30;;;;;;;12.35;70.02;99590.50;338198;29;1882;-68
2022/10/10 00:08:08;;;;;;;4.18;3.50;;;;;;;12.36;69.88;99583.50;338859;29;2910;-68
2022/10/10 00:08:21;;;;;;;5.57;3.80;;;;;;;12.35;70.13;99587.88;341368;28;1930;-68
2022/10/10 00:08:33;;;;;;;5.63;3.70;;;;;;;12.37;69.76;99588.66;341414;28;1979;-68
2022/10/10 00:08:45;;;;;;;5.88;3.60;;;;;;;12.36;70.07;99592.16;341021;28;1453;-68
2022/10/10 00:08:57;;;;;;;4.80;3.47;;;;;;;12.35;69.80;99587.00;341113;29;1107;-68
2022/10/10 00:09:09;;;;;;;5.00;3.50;;;;;;;12.34;70.00;99586.19;340938;29;1222;-68
2022/10/10 00:09:20;;;;;;;5.30;3.50;;;;;;;12.31;70.40;99583.69;339773;29;1826;-68
2022/10/10 00:09:32;;;;;;;5.15;3.55;;;;;;;12.32;70.21;99590.59;339886;29;1596;-68
2022/10/10 00:09:46;;;;;;;4.88;3.50;;;;;;;12.34;69.92;99587.94;339626;29;1040;-68
2022/10/10 00:09:58;;;;;;;4.30;3.33;;;;;;;12.34;70.13;99585.34;339617;28;1552;-68
2022/10/10 00:10:10;;;;;;;4.10;3.30;;;;;;;12.33;69.91;99587.06;340261;29;1805;-69
2022/10/10 00:10:22;;;;;;;4.15;3.30;;;;;;;12.33;69.81;99589.69;341057;28;1282;-68
2022/10/10 00:10:35;;;;;;;5.60;3.40;;;;;;;12.34;69.63;99586.19;341159;28;1687;-68
2022/10/10 00:10:47;;;;;;;5.78;3.47;;;;;;;12.35;69.57;99587.88;340870;28;1230;-68
2022/10/10 00:10:59;;;;;;;4.65;3.50;;;;;;;12.38;69.60;99585.13;341213;28;1221;-68
2022/10/10 00:11:13;;;;;;;4.45;3.42;;;;;;;12.42;69.57;99596.28;341208;28;1538;-68
2022/10/10 00:11:25;;;;;;;6.13;3.30;;;;;;;12.43;69.54;99586.69;341077;28;1496;-68
2022/10/10 00:11:37;;;;;;;6.60;3.22;;;;;;;12.41;69.63;99588.53;340997;28;1093;-68
2022/10/10 00:11:49;;;;;;;6.00;3.35;;;;;;;12.43;69.40;99597.13;340705;28;1629;-68
2022/10/10 00:12:00;;;;;;;6.78;3.47;;;;;;;12.41;70.04;99583.31;340904;28;1614;-68
2022/10/10 00:12:13;;;;;;;6.85;3.50;;;;;;;12.41;69.88;99585.91;340887;29;1313;-68
2022/10/10 00:12:25;;;;;;;7.40;3.70;;;;;;;12.41;69.91;99588.53;340913;28;1213;-68
2022/10/10 00:12:37;;;;;;;6.35;3.70;;;;;;;12.42;69.44;99590.25;341212;28;1104;-68
2022/10/10 00:12:49;;;;;;;5.05;3.42;;;;;;;12.41;70.28;99593.75;341198;28;1189;-68
2022/10/10 00:13:02;;;;;;;5.40;3.30;;;;;;;12.37;70.17;99588.66;340092;28;1639;-68
2022/10/10 00:13:14;;;;;;;5.93;3.40;;;;;;;12.36;70.30;99589.56;340197;29;1823;-69
2022/10/10 00:13:26;;;;;;;6.50;3.58;;;;;;;12.36;69.75;99588.72;339710;29;1079;-68
2022/10/10 00:13:38;;;;;;;6.95;3.50;;;;;;;12.35;70.45;99590.50;339907;29;1853;-68
2022/10/10 00:13:50;;;;;;;6.00;3.42;;;;;;;12.34;70.26;99588.78;340626;29;1703;-68
2022/10/10 00:14:04;;;;;;;5.95;3.65;;;;;;;12.35;70.17;99585.28;340369;29;1471;-68
2022/10/10 00:14:16;;;;;;;4.97;3.45;;;;;;;12.38;70.08;99585.13;340141;29;1255;-68
2022/10/10 00:14:28;;;;;;;5.28;3.55;;;;;;;12.39;69.87;99583.38;340943;29;1059;-69
2022/10/10 00:14:43;;;;;;;6.13;3.78;;;;;;;12.41;69.79;99589.38;340820;29;1116;-68
2022/10/10 00:14:55;;;;;;;5.85;3.58;;;;;;;12.38;69.65;99590.34;339634;29;1319;-68
2022/10/10 00:15:08;;;;;;;5.72;3.45;;;;;;;12.40;69.77;99592.91;339759;29;1601;-68
2022/10/10 00:15:20;;;;;;;4.57;3.28;;;;;;;12.38;70.07;99587.75;340559;29;1352;-68
2022/10/10 00:15:33;;;;;;;4.93;3.20;;;;;;;12.37;70.37;99591.28;340386;29;1547;-68
2022/10/10 00:15:44;;;;;;;4.68;3.17;;;;;;;12.36;69.85;99586.97;341136;29;1080;-68
2022/10/10 00:16:00;;;;;;;5.60;3.58;;;;;;;12.37;69.77;99587.81;340829;29;1262;-68
2022/10/10 00:16:13;;;;;;;5.63;3.50;;;;;;;12.37;69.74;99586.06;340740;29;1035;-68
2022/10/10 00:16:25;;;;;;;6.00;3.33;;;;;;;12.37;69.82;99593.88;340849;29;1191;-68
2022/10/10 00:16:37;;;;;;;5.97;3.40;;;;;;;12.36;69.98;99592.16;341099;29;1213;-68
2022/10/10 00:16:49;;;;;;;5.80;3.60;;;;;;;12.36;69.61;99581.75;340817;29;1246;-69
2022/10/10 00:17:01;;;;;;;5.35;3.60;;;;;;;12.41;69.57;99588.53;341144;29;1059;-69
2022/10/10 00:17:13;;;;;;;5.65;3.40;;;;;;;12.40;69.91;99590.28;341160;28;1314;-68
2022/10/10 00:17:24;;;;;;;6.47;3.35;;;;;;;12.34;69.68;99594.00;341063;28;1277;-68
2022/10/10 00:17:37;;;;;;;5.45;3.25;;;;;;;12.32;69.67;99590.59;340954;28;1157;-68
2022/10/10 00:17:49;;;;;;;4.85;3.30;;;;;;;12.31;69.94;99591.50;340596;28;1613;-68
2022/10/10 00:18:02;;;;;;;5.13;3.30;;;;;;;12.30;70.24;99586.38;341122;28;1953;-68
2022/10/10 00:18:14;;;;;;;4.60;3.42;;;;;;;12.30;69.67;99587.22;341445;28;1805;-68
2022/10/10 00:18:26;;;;;;;4.32;3.40;;;;;;;12.29;69.83;99590.72;341873;28;1547;-68
2022/10/10 00:18:39;;;;;;;4.90;3.50;;;;;;;12.28;70.02;99583.81;342228;28;1442;-68
2022/10/10 00:18:51;;;;;;;6.07;3.30;;;;;;;12.28;70.00;99588.19;341218;28;1416;-68
2022/10/10 00:19:03;;;;;;;5.68;3.38;;;;;;;12.30;69.90;99587.22;342041;28;1635;-68
2022/10/10 00:19:15;;;;;;;4.43;3.38;;;;;;;12.28;70.13;99589.03;341892;28;1309;-68
2022/10/10 00:19:26;;;;;;;4.53;3.35;;;;;;;12.29;70.71;99590.72;340938;29;1099;-68
2022/10/10 00:19:38;;;;;;;4.82;3.40;;;;;;;12.30;70.98;99592.44;340678;29;1100;-68
2022/10/10 00:19:50;;;;;;;4.95;3.45;;;;;;;12.32;70.27;99580.19;340893;29;1079;-68
2022/10/10 00:20:03;;;;;;;7.20;3.60;;;;;;;12.33;70.19;99587.06;340669;29;1038;-68
2022/10/10 00:20:18;;;;;;;7.10;3.50;;;;;;;12.33;70.42;99587.06;341636;28;1670;-68
2022/10/10 00:20:30;;;;;;;5.80;3.38;;;;;;;12.34;69.97;99593.16;340456;29;1068;-68
2022/10/10 00:20:42;;;;;;;4.63;3.40;;;;;;;12.35;70.32;99585.28;340976;28;1023;-68
2022/10/10 00:20:54;;;;;;;4.03;3.30;;;;;;;12.33;70.53;99581.84;341181;28;1027;-68
2022/10/10 00:21:07;;;;;;;4.50;3.40;;;;;;;12.32;70.31;99590.59;341124;28;1237;-68
2022/10/10 00:21:19;;;;;;;5.00;3.55;;;;;;;12.31;70.36;99594.09;340996;28;1223;-68
2022/10/10 00:21:31;;;;;;;5.13;3.70;;;;;;;12.30;70.52;99592.44;341305;28;1059;-68
2022/10/10 00:21:43;;;;;;;5.95;3.72;;;;;;;12.31;70.50;99594.09;341351;28;1078;-68
2022/10/10 00:21:55;;;;;;;6.65;3.67;;;;;;;12.31;70.26;99588.06;341260;28;1111;-68
2022/10/10 00:22:06;;;;;;;6.20;3.58;;;;;;;12.31;70.49;99588.06;341276;28;1202;-68
2022/10/10 00:22:18;;;;;;;5.80;3.47;;;;;;;12.31;70.40;99593.25;340485;28;1797;-68
2022/10/10 00:22:30;;;;;;;6.60;3.58;;;;;;;12.31;70.10;99588.88;340707;28;1851;-68
2022/10/10 00:22:43;;;;;;;5.22;3.55;;;;;;;12.31;70.40;99593.25;341249;29;809;-69
2022/10/10 00:22:55;;;;;;;5.72;3.58;;;;;;;12.32;70.18;99593.22;340818;29;1040;-68
2022/10/10 00:23:07;;;;;;;5.50;3.40;;;;;;;12.33;70.35;99592.28;341165;29;1806;-68
2022/10/10 00:23:19;;;;;;;4.95;3.25;;;;;;;12.35;69.85;99589.63;340549;29;1196;-68
2022/10/10 00:23:31;;;;;;;4.72;3.40;;;;;;;12.35;69.94;99595.72;339831;29;1116;-68
2022/10/10 00:23:43;;;;;;;5.30;3.55;;;;;;;12.33;69.79;99589.69;340228;29;1235;-68
2022/10/10 00:23:55;;;;;;;5.32;3.60;;;;;;;12.36;69.85;99591.34;341300;29;995;-68
2022/10/10 00:24:07;;;;;;;5.15;3.60;;;;;;;12.35;70.11;99585.28;340864;29;1060;-68
2022/10/10 00:24:19;;;;;;;4.55;3.38;;;;;;;12.37;69.45;99588.66;340367;29;1496;-68
2022/10/10 00:24:31;;;;;;;4.43;3.30;;;;;;;12.37;69.87;99582.59;340759;29;1158;-68
2022/10/10 00:24:43;;;;;;;4.65;3.30;;;;;;;12.35;69.98;99587.88;338883;28;7501;-68
2022/10/10 00:24:55;;;;;;;4.57;3.30;;;;;;;12.37;69.87;99587.81;339342;29;3679;-68
2022/10/10 00:25:08;;;;;;;4.32;3.35;;;;;;;12.40;69.61;99585.09;340836;29;1063;-68
2022/10/10 00:25:20;;;;;;;4.68;3.55;;;;;;;12.36;69.38;99586.97;341013;29;1394;-69
2022/10/10 00:25:32;;;;;;;5.10;3.65;;;;;;;12.35;69.85;99584.41;339745;29;1603;-69
2022/10/10 00:25:44;;;;;;;7.28;3.90;;;;;;;12.33;69.85;99581.00;340107;29;1846;-69
2022/10/10 00:25:56;;;;;;;6.85;3.85;;;;;;;12.34;69.54;99588.78;340576;28;1642;-68
2022/10/10 00:26:08;;;;;;;7.18;3.80;;;;;;;12.35;69.87;99589.63;341643;28;1642;-68
2022/10/10 00:26:24;;;;;;;6.22;3.60;;;;;;;12.36;69.36;99588.72;342122;28;1296;-68
2022/10/10 00:26:36;;;;;;;6.32;3.70;;;;;;;12.36;69.86;99586.97;341914;28;1082;-68
2022/10/10 00:26:48;;;;;;;5.07;3.60;;;;;;;12.34;70.38;99594.00;342045;28;956;-68
2022/10/10 00:27:00;;;;;;;5.30;3.38;;;;;;;12.33;70.20;99594.06;342007;28;1224;-68
2022/10/10 00:27:12;;;;;;;4.65;3.20;;;;;;;12.32;70.10;99584.56;342125;28;1104;-68
2022/10/10 00:27:24;;;;;;;4.82;3.33;;;;;;;12.32;70.05;99581.94;341230;28;1345;-68
2022/10/10 00:27:36;;;;;;;4.65;3.60;;;;;;;12.31;70.19;99585.44;339963;28;1395;-68
2022/10/10 00:27:48;;;;;;;4.60;3.55;;;;;;;12.27;70.35;99587.31;341029;28;1051;-69
2022/10/10 00:28:01;;;;;;;4.78;3.55;;;;;;;12.25;70.55;99586.53;342247;28;1067;-68
2022/10/10 00:28:14;;;;;;;4.80;3.50;;;;;;;12.25;70.32;99588.31;340724;29;1340;-68
2022/10/10 00:28:26;;;;;;;4.40;3.45;;;;;;;12.25;70.82;99583.09;340982;29;1104;-68
2022/10/10 00:28:38;;;;;;;4.57;3.60;;;;;;;12.23;70.78;99590.97;340603;28;1547;-68
2022/10/10 00:28:50;;;;;;;4.10;3.50;;;;;;;12.23;70.71;99585.75;341198;28;1812;-68
2022/10/10 00:29:02;;;;;;;5.85;3.78;;;;;;;12.23;70.38;99590.13;342162;28;1279;-68
2022/10/10 00:29:14;;;;;;;6.47;3.85;;;;;;;12.21;70.15;99590.19;342215;28;1302;-68
2022/10/10 00:29:26;;;;;;;7.50;3.92;;;;;;;12.21;70.54;99587.56;342197;28;1086;-68
2022/10/10 00:29:38;;;;;;;8.30;3.53;;;;;;;12.20;70.46;99583.28;341404;28;1854;-68
2022/10/10 00:29:50;;;;;;;6.60;3.35;;;;;;;12.20;70.32;99585.88;342206;28;1122;-68
2022/10/10 00:30:04;;;;;;;5.10;3.40;;;;;;;12.21;70.27;99587.56;341742;28;1015;-68
2022/10/10 00:30:17;;;;;;;4.85;3.80;;;;;;;12.22;70.41;99589.28;342436;28;1337;-68
2022/10/10 00:30:30;;;;;;;5.70;3.75;;;;;;;12.23;70.17;99585.75;340788;29;1907;-68
2022/10/10 00:30:42;;;;;;;5.95;3.53;;;;;;;12.25;70.23;99588.31;341072;29;1393;-68
2022/10/10 00:30:55;;;;;;;5.63;3.20;;;;;;;12.28;70.12;99582.97;340609;29;1051;-68
2022/10/10 00:31:08;;;;;;;5.30;3.33;;;;;;;12.26;69.86;99580.44;340014;29;719;-68
2022/10/10 00:31:20;;;;;;;5.07;3.40;;;;;;;12.24;70.09;99582.25;339247;29;1255;-68
2022/10/10 00:31:33;;;;;;;6.05;3.60;;;;;;;12.23;70.18;99585.75;340767;29;1252;-68
2022/10/10 00:31:44;;;;;;;6.13;3.60;;;;;;;12.21;69.97;99586.72;340043;28;1635;-68
2022/10/10 00:31:56;;;;;;;6.55;3.63;;;;;;;12.23;69.84;99584.91;339909;29;1674;-69
2022/10/10 00:32:08;;;;;;;6.40;3.47;;;;;;;12.21;69.71;99587.56;340935;29;1191;-69
2022/10/10 00:32:20;;;;;;;5.85;3.30;;;;;;;12.16;70.09;99584.31;340764;29;1669;-69
2022/10/10 00:32:33;;;;;;;6.05;3.55;;;;;;;12.15;70.32;99588.69;339897;29;1978;-68
2022/10/10 00:32:45;;;;;;;6.28;3.63;;;;;;;12.16;70.57;99589.53;338448;29;1036;-68
2022/10/10 00:32:58;;;;;;;6.72;3.70;;;;;;;12.19;70.13;99595.47;338279;29;1043;-68
2022/10/10 00:33:10;;;;;;;5.50;3.50;;;;;;;12.20;70.37;99591.09;339791;29;1587;-68
2022/10/10 00:33:22;;;;;;;5.18;3.47;;;;;;;12.22;70.37;99589.28;340797;29;1648;-68
2022/10/10 00:33:35;;;;;;;6.30;3.60;;;;;;;12.24;70.14;99595.28;340710;29;1259;-68
2022/10/10 00:33:47;;;;;;;6.03;3.60;;;;;;;12.25;70.52;99586.53;340776;29;1041;-68
2022/10/10 00:33:59;;;;;;;5.13;3.70;;;;;;;12.27;70.14;99589.09;340818;29;1092;-68
2022/10/10 00:34:11;;;;;;;4.43;3.67;;;;;;;12.26;70.18;99588.25;340822;29;1072;-68
2022/10/10 00:34:23;;;;;;;4.47;3.40;;;;;;;12.27;70.11;99587.31;339196;29;1346;-68
2022/10/10 00:34:35;;;;;;;4.93;3.45;;;;;;;12.29;70.44;99585.50;339679;29;1044;-69
2022/10/10 00:34:47;;;;;;;5.38;3.40;;;;;;;12.28;70.49;99594.25;340065;29;1304;-69
2022/10/10 00:34:59;;;;;;;5.10;3.45;;;;;;;12.25;70.39;99586.53;340908;28;1071;-68
2022/10/10 00:35:11;;;;;;;4.32;3.47;;;;;;;12.26;69.98;99592.63;340976;29;1031;-68
2022/10/10 00:35:23;;;;;;;4.22;3.58;;;;;;;12.26;70.08;99585.63;340971;28;1403;-68
2022/10/10 00:35:35;;;;;;;4.07;3.35;;;;;;;12.26;70.16;99590.84;341054;29;1445;-68
2022/10/10 00:35:48;;;;;;;4.97;3.38;;;;;;;12.26;69.93;99584.81;340788;29;1069;-68
2022/10/10 00:35:59;;;;;;;6.07;3.22;;;;;;;12.26;70.06;99588.25;340945;29;1361;-68
2022/10/10 00:36:11;;;;;;;6.50;3.33;;;;;;;12.26;69.98;99585.63;341044;29;1079;-68
2022/10/10 00:36:23;;;;;;;5.18;3.30;;;;;;;12.24;70.27;99590.06;340293;29;1465;-68
2022/10/10 00:36:35;;;;;;;3.95;3.40;;;;;;;12.23;70.04;99590.97;339821;29;1235;-68
2022/10/10 00:36:47;;;;;;;4.00;3.28;;;;;;;12.21;69.99;99589.34;339937;29;927;-68
2022/10/10 00:36:59;;;;;;;4.32;3.17;;;;;;;12.20;69.94;99585.88;340905;28;1562;-69
2022/10/10 00:37:11;;;;;;;4.50;3.33;;;;;;;12.17;70.06;99580.78;340974;29;977;-68
2022/10/10 00:37:23;;;;;;;6.25;3.65;;;;;;;12.18;70.39;99587.72;340206;28;1301;-68
2022/10/10 00:37:35;;;;;;;5.38;3.50;;;;;;;12.21;69.98;99581.53;340057;29;1234;-68
2022/10/10 00:37:47;;;;;;;5.63;3.50;;;;;;;12.21;69.88;99590.19;340002;29;1270;-68
2022/10/10 00:37:59;;;;;;;4.90;3.33;;;;;;;12.25;70.09;99588.31;340212;28;1556;-68
2022/10/10 00:38:12;;;;;;;4.65;3.30;;;;;;;12.26;69.83;99590.00;341113;28;1804;-68
2022/10/10 00:38:24;;;;;;;4.20;3.30;;;;;;;12.23;69.75;99585.75;340324;28;1681;-68
2022/10/10 00:38:36;;;;;;;4.28;3.30;;;;;;;12.17;70.17;99578.19;340914;28;1047;-68
2022/10/10 00:38:48;;;;;;;4.25;3.20;;;;;;;12.18;70.25;99585.09;341234;28;1166;-68
2022/10/10 00:39:00;;;;;;;4.68;3.40;;;;;;;12.16;70.48;99584.31;340275;28;2132;-68
2022/10/10 00:39:12;;;;;;;5.18;3.53;;;;;;;12.09;70.26;99583.72;340657;29;1860;-68
2022/10/10 00:39:24;;;;;;;6.18;3.50;;;;;;;12.10;70.08;99584.56;341171;29;1196;-68
2022/10/10 00:39:36;;;;;;;6.03;3.47;;;;;;;12.08;70.14;99584.63;340726;28;1118;-68
2022/10/10 00:39:48;;;;;;;5.75;3.50;;;;;;;12.08;70.04;99587.22;339361;29;1016;-68
2022/10/10 00:40:00;;;;;;;6.20;3.55;;;;;;;12.08;70.04;99592.44;339688;29;1625;-68
2022/10/10 00:40:13;;;;;;;6.50;3.60;;;;;;;12.11;70.21;99589.72;339336;29;1828;-68
2022/10/10 00:40:25;;;;;;;4.72;3.53;;;;;;;12.10;70.18;99587.16;338411;29;1310;-68
2022/10/10 00:40:46;;;;;;;4.32;3.35;;;;;;;12.11;70.28;99588.84;339789;29;1856;-68
2022/10/10 00:40:58;;;;;;;5.22;3.28;;;;;;;12.11;70.40;99587.13;338286;29;3790;-68
2022/10/10 00:41:11;;;;;;;6.03;3.33;;;;;;;12.11;70.21;99581.03;337754;29;1508;-68
2022/10/10 00:41:25;;;;;;;5.40;3.45;;;;;;;12.11;70.27;99588.84;338158;29;1813;-68
2022/10/10 00:41:37;;;;;;;5.55;3.72;;;;;;;12.13;70.33;99584.44;339666;29;1056;-68
2022/10/10 00:41:50;;;;;;;6.03;3.60;;;;;;;12.13;69.97;99585.31;339830;29;1010;-68
2022/10/10 00:42:01;;;;;;;6.47;3.80;;;;;;;12.15;70.20;99582.59;339285;29;1629;-68
2022/10/10 00:42:16;;;;;;;6.55;3.80;;;;;;;12.17;69.74;99586.00;339748;29;1628;-68
2022/10/10 00:42:28;;;;;;;5.18;3.55;;;;;;;12.14;69.96;99586.13;339440;29;1008;-68
2022/10/10 00:42:40;;;;;;;4.68;3.40;;;;;;;12.11;69.84;99581.03;339380;29;1632;-68
2022/10/10 00:42:52;;;;;;;4.50;3.33;;;;;;;12.10;70.12;99579.34;340679;29;3215;-68
2022/10/10 00:43:04;;;;;;;5.18;3.25;;;;;;;12.09;70.00;99585.47;340257;29;1632;-68
2022/10/10 00:43:17;;;;;;;6.03;3.55;;;;;;;12.10;69.68;99584.56;340948;28;1565;-68
2022/10/10 00:43:31;;;;;;;6.60;3.60;;;;;;;12.07;69.99;99582.91;340932;29;1019;-68
2022/10/10 00:44:00;;;;;;;6.28;3.67;;;;;;;12.04;70.75;99585.66;341733;28;1703;-69
2022/10/10 00:44:14;;;;;;;6.10;3.70;;;;;;;12.04;70.57;99579.59;340485;28;1399;-68
2022/10/10 00:44:26;;;;;;;6.10;3.58;;;;;;;12.04;69.89;99580.44;340966;28;1277;-69
2022/10/10 00:44:40;;;;;;;5.75;3.60;;;;;;;12.06;70.27;99583.00;342316;28;1127;-68
2022/10/10 00:45:19;;;;;;;6.15;3.50;;;;;;;12.03;70.26;99578.72;342092;28;1067;-68
2022/10/10 00:45:39;;;;;;;4.28;3.25;;;;;;;12.10;70.29;99574.16;340855;29;1052;-69
2022/10/10 00:45:51;;;;;;;4.03;3.25;;;;;;;12.04;70.30;99580.44;341980;28;1492;-68
2022/10/10 00:46:04;;;;;;;4.07;3.40;;;;;;;12.03;71.07;99577.88;341670;28;1680;-68
2022/10/10 00:46:15;;;;;;;4.75;3.28;;;;;;;12.00;71.21;99578.88;340934;28;1670;-68
2022/10/10 00:46:27;;;;;;;5.35;3.33;;;;;;;12.00;70.76;99578.88;342138;28;1500;-68
2022/10/10 00:46:40;;;;;;;6.55;3.63;;;;;;;12.00;70.51;99578.88;341129;29;1055;-69
2022/10/10 00:46:52;;;;;;;6.13;3.75;;;;;;;11.98;70.52;99581.53;339928;29;3545;-68
2022/10/10 00:47:05;;;;;;;5.97;3.80;;;;;;;11.97;70.65;99579.84;340719;28;1588;-68
2022/10/10 00:47:17;;;;;;;6.13;3.63;;;;;;;11.99;70.64;99580.63;339625;29;1409;-68
2022/10/10 00:47:29;;;;;;;6.07;3.63;;;;;;;12.01;70.69;99580.53;340317;29;1454;-68
2022/10/10 00:47:41;;;;;;;6.75;3.60;;;;;;;12.02;70.23;99577.06;340735;29;1690;-68
2022/10/10 00:48:19;;;;;;;6.22;3.53;;;;;;;11.96;71.11;99582.50;340939;29;1180;-68
2022/10/10 00:48:39;;;;;;;8.35;3.85;;;;;;;11.93;70.83;99583.47;336912;29;1313;-68
2022/10/10 00:48:51;;;;;;;6.28;3.42;;;;;;;11.93;70.79;99578.28;339937;29;1116;-68
2022/10/10 00:49:09;;;;;;;5.22;3.50;;;;;;;11.91;70.70;99580.09;340557;28;1742;-68
2022/10/10 00:49:28;;;;;;;6.50;3.67;;;;;;;11.96;70.63;99577.28;340227;29;1361;-68
2022/10/10 00:49:43;;;;;;;6.18;3.60;;;;;;;11.98;70.61;99585.91;339993;28;1753;-68
2022/10/10 00:49:55;;;;;;;5.03;3.47;;;;;;;11.99;71.10;99578.03;340505;28;1674;-68
2022/10/10 00:50:07;;;;;;;5.80;3.58;;;;;;;11.93;70.68;99580.88;339671;28;1696;-68
2022/10/10 00:50:21;;;;;;;6.55;3.60;;;;;;;11.91;70.76;99580.09;340528;29;1483;-69
2022/10/10 00:50:39;;;;;;;6.10;3.75;;;;;;;11.90;70.94;99575.78;341103;28;1157;-69
2022/10/10 00:51:11;;;;;;;5.40;3.97;;;;;;;11.91;70.86;99590.50;340413;28;1640;-68
2022/10/10 00:51:23;;;;;;;5.97;3.70;;;;;;;11.95;70.64;99581.66;342007;28;1842;-68
2022/10/10 00:51:36;;;;;;;5.65;3.63;;;;;;;11.94;70.81;99579.94;342450;28;765;-68
2022/10/10 00:51:51;;;;;;;4.93;3.53;;;;;;;11.93;70.61;99578.28;342079;28;1118;-69
2022/10/10 00:52:04;;;;;;;5.95;3.70;;;;;;;11.92;70.69;99579.16;341846;28;1549;-68
2022/10/10 00:52:16;;;;;;;6.55;3.80;;;;;;;11.94;70.79;99579.94;341091;28;1999;-68
2022/10/10 00:52:28;;;;;;;6.03;3.80;;;;;;;11.95;71.34;99578.19;342359;28;1067;-68
2022/10/10 00:52:40;;;;;;;6.32;3.80;;;;;;;11.95;70.74;99580.78;341612;28;1721;-68
2022/10/10 00:52:53;;;;;;;6.53;3.70;;;;;;;11.94;70.87;99579.94;341992;28;1063;-68
2022/10/10 00:53:07;;;;;;;7.20;3.78;;;;;;;11.95;70.53;99581.66;341798;28;1914;-68
2022/10/10 00:53:23;;;;;;;6.78;3.72;;;;;;;11.92;70.93;99571.34;341589;28;1823;-68
2022/10/10 00:53:43;;;;;;;6.55;3.75;;;;;;;11.94;70.72;99579.94;342107;28;1589;-68
2022/10/10 00:54:03;;;;;;;7.72;3.72;;;;;;;11.93;70.97;99588.69;342106;28;1301;-69
2022/10/10 00:54:19;;;;;;;5.78;3.65;;;;;;;11.92;71.18;99576.56;341801;28;1724;-68
2022/10/10 00:54:32;;;;;;;4.97;3.55;;;;;;;11.95;71.08;99576.47;340782;28;2014;-68
2022/10/10 00:54:44;;;;;;;5.95;3.60;;;;;;;11.97;70.90;99574.63;340624;28;1665;-68
2022/10/10 00:54:56;;;;;;;6.50;3.90;;;;;;;11.99;70.74;99578.03;341000;29;1056;-68
2022/10/10 00:55:10;;;;;;;5.95;3.88;;;;;;;11.98;70.72;99573.72;340834;28;1543;-68
2022/10/10 00:55:22;;;;;;;4.72;3.70;;;;;;;11.97;70.73;99577.25;341488;28;1931;-68
2022/10/10 00:55:35;;;;;;;5.07;3.70;;;;;;;11.95;71.27;99571.25;341065;28;1659;-68
2022/10/10 00:55:47;;;;;;;6.15;3.88;;;;;;;11.94;70.69;99574.75;340953;28;1003;-68
2022/10/10 00:56:01;;;;;;;5.70;3.83;;;;;;;11.92;70.60;99571.34;340060;28;2100;-68
2022/10/10 00:56:16;;;;;;;5.13;3.80;;;;;;;11.94;70.90;99573.91;339648;29;1156;-68
2022/10/10 00:56:34;;;;;;;5.20;3.53;;;;;;;11.91;70.93;99574.88;340953;28;1311;-68
2022/10/10 00:56:51;;;;;;;4.93;3.80;;;;;;;11.92;71.19;99568.75;341105;28;1062;-69
2022/10/10 00:57:08;;;;;;;5.47;3.90;;;;;;;11.90;70.83;99572.31;341867;28;1671;-68
2022/10/10 00:57:20;;;;;;;6.32;4.07;;;;;;;11.88;70.83;99572.34;341215;28;1648;-68
2022/10/10 00:57:32;;;;;;;6.30;3.95;;;;;;;11.89;71.14;99576.69;342176;28;1075;-68
2022/10/10 00:57:44;;;;;;;6.38;3.88;;;;;;;11.89;71.05;99576.69;342043;28;1332;-69
2022/10/10 00:57:56;;;;;;;5.97;3.90;;;;;;;11.89;70.94;99571.50;342358;28;750;-69
2022/10/10 00:58:09;;;;;;;5.95;3.92;;;;;;;11.91;70.94;99576.63;340721;28;1624;-68
2022/10/10 00:58:23;;;;;;;5.85;3.80;;;;;;;11.91;71.20;99574.88;341765;28;1815;-68
2022/10/10 00:58:39;;;;;;;5.75;3.85;;;;;;;11.93;71.25;99575.66;342190;28;1281;-68
2022/10/10 00:58:54;;;;;;;6.72;4.13;;;;;;;11.93;70.90;99567.84;341380;28;1628;-68
2022/10/10 00:59:09;;;;;;;6.05;3.95;;;;;;;11.95;70.50;99576.47;341353;28;3259;-68
2022/10/10 00:59:22;;;;;;;5.25;3.92;;;;;;;11.88;70.87;99574.13;340580;28;1592;-68
2022/10/10 00:59:37;;;;;;;6.28;3.75;;;;;;;11.90;70.72;99578.38;340923;29;1833;-68
2022/10/10 00:59:49;;;;;;;6.55;3.67;;;;;;;11.91;70.68;99574.88;340842;29;1044;-68
2022/10/10 01:00:04;;;;;;;5.90;3.88;;;;;;;11.93;70.89;99572.19;340616;29;1782;-68
2022/10/10 01:00:16;;;;;;;6.60;3.95;;;;;;;11.95;70.93;99576.47;338380;29;1749;-68
2022/10/10 01:00:28;;;;;;;5.55;3.65;;;;;;;11.96;70.73;99572.09;339583;29;1248;-68
2022/10/10 01:00:40;;;;;;;5.53;3.75;;;;;;;11.97;70.75;99574.63;340862;29;949;-68
2022/10/10 01:00:53;;;;;;;4.93;3.65;;;;;;;12.01;70.48;99569.28;339579;29;1288;-68
2022/10/10 01:01:05;;;;;;;5.40;3.60;;;;;;;12.01;70.90;99570.13;339441;29;1635;-68
2022/10/10 01:01:17;;;;;;;6.07;3.60;;;;;;;12.02;70.34;99571.00;339102;29;1488;-68
2022/10/10 01:01:30;;;;;;;6.07;3.88;;;;;;;12.03;70.36;99568.31;339132;29;1799;-69
2022/10/10 01:01:42;;;;;;;6.72;4.00;;;;;;;12.04;70.53;99571.78;339594;29;1265;-68
2022/10/10 01:01:54;;;;;;;6.30;3.97;;;;;;;12.03;70.73;99570.91;339572;29;1257;-68
2022/10/10 01:02:05;;;;;;;5.95;4.00;;;;;;;12.00;70.75;99568.44;339473;28;1598;-68
2022/10/10 01:02:18;;;;;;;6.10;4.20;;;;;;;12.02;70.67;99571.00;340427;29;1486;-68
2022/10/10 01:02:30;;;;;;;5.72;4.10;;;;;;;12.01;70.80;99569.28;339492;29;1189;-69
2022/10/10 01:02:42;;;;;;;5.00;3.85;;;;;;;12.01;70.32;99567.53;339650;29;1020;-68
2022/10/10 01:02:54;;;;;;;5.82;3.80;;;;;;;12.02;70.69;99565.78;339663;29;1012;-68